Time;durP1;ratioP1;P1;durP2;ratioP2;P2;SDS_P1;SDS_P2;PMS_P1;PMS_P2;Temp;Humidity;BMP_temperature;BMP_pressure;BME280_temperature;BME280_humidity;BME280_pressure;Samples;Min_cycle;Max_cycle;Signal;HPM_P1;HPM_P2
2022/04/21 00:02:21;;;;;;;5.07;3.93;;;11.50;96.40;;;;;;5025482;28;20460;-41
2022/04/21 00:04:47;;;;;;;4.20;3.80;;;11.50;96.60;;;;;;5030424;28;20946;-41
2022/04/21 00:07:13;;;;;;;5.33;4.07;;;11.40;96.70;;;;;;5031663;28;20598;-41
2022/04/21 00:09:38;;;;;;;4.00;3.60;;;11.40;96.60;;;;;;5031206;28;20281;-41
2022/04/21 00:12:04;;;;;;;4.20;3.80;;;11.40;97.20;;;;;;5030243;28;20190;-41
2022/04/21 00:14:31;;;;;;;4.43;3.70;;;11.50;96.50;;;;;;5031924;28;20190;-41
2022/04/21 00:16:56;;;;;;;4.00;3.60;;;11.50;96.60;;;;;;5025050;28;20856;-41
2022/04/21 00:19:22;;;;;;;3.83;3.53;;;11.60;96.50;;;;;;5031741;28;20476;-41
2022/04/21 00:24:39;;;;;;;4.20;3.80;;;11.40;96.70;;;;;;5039567;28;20233;-41
2022/04/21 00:27:05;;;;;;;4.60;4.20;;;11.30;97.90;;;;;;5051377;28;20483;-41
2022/04/21 00:29:30;;;;;;;6.40;4.30;;;11.10;98.50;;;;;;5050072;28;20189;-41
2022/04/21 00:31:56;;;;;;;4.90;4.10;;;10.90;99.00;;;;;;5023885;28;20252;-41
2022/04/21 00:34:22;;;;;;;4.43;4.03;;;10.80;99.60;;;;;;5031273;28;20560;-41
2022/04/21 00:36:47;;;;;;;4.47;4.03;;;10.80;99.90;;;;;;5029948;28;20201;-41
2022/04/21 00:39:13;;;;;;;5.57;3.73;;;10.70;99.90;;;;;;5031346;28;20555;-41
2022/04/21 00:41:41;;;;;;;5.57;4.43;;;10.60;99.90;;;;;;5030686;28;20321;-42
2022/04/21 00:44:07;;;;;;;3.90;3.60;;;10.50;99.90;;;;;;5031267;28;20255;-42
2022/04/21 00:46:38;;;;;;;7.50;4.30;;;10.50;99.90;;;;;;5019487;28;20520;-41
2022/04/21 00:49:05;;;;;;;4.27;3.97;;;10.40;99.90;;;;;;5030929;28;20190;-41
2022/04/21 00:51:31;;;;;;;5.00;4.00;;;10.70;99.90;;;;;;5030417;28;20428;-41
2022/04/21 00:53:57;;;;;;;5.53;3.83;;;10.30;99.90;;;;;;5031006;28;20516;-41
2022/04/21 00:56:23;;;;;;;4.40;4.00;;;10.10;99.90;;;;;;5031084;28;20466;-41
2022/04/21 00:58:50;;;;;;;4.43;4.00;;;10.10;99.90;;;;;;5030867;28;20445;-41
2022/04/21 01:04:01;;;;;;;5.50;4.20;;;9.90;99.90;;;;;;5027332;28;20464;-41
2022/04/21 01:06:27;;;;;;;6.80;3.87;;;9.80;99.90;;;;;;5030973;28;20788;-41
2022/04/21 01:08:52;;;;;;;7.47;4.23;;;9.80;99.90;;;;;;5030749;28;20437;-41
2022/04/21 01:11:18;;;;;;;4.80;4.37;;;9.80;99.90;;;;;;5029082;28;20448;-41
2022/04/21 01:13:44;;;;;;;4.50;3.60;;;9.60;99.90;;;;;;5030451;28;20186;-41
2022/04/21 01:16:10;;;;;;;7.37;4.00;;;9.70;99.90;;;;;;5024223;28;20201;-41
2022/04/21 01:18:36;;;;;;;4.07;3.77;;;9.70;99.90;;;;;;5025585;28;20425;-41
2022/04/21 01:21:01;;;;;;;5.00;4.50;;;9.80;99.90;;;;;;5029727;28;20549;-41
2022/04/21 01:23:27;;;;;;;5.57;4.67;;;10.10;99.90;;;;;;5030373;28;20210;-41
2022/04/21 01:25:53;;;;;;;4.97;3.90;;;9.90;99.90;;;;;;5036974;28;20189;-41
2022/04/21 01:28:19;;;;;;;4.70;4.17;;;9.80;99.90;;;;;;5050393;28;20195;-41
2022/04/21 01:30:45;;;;;;;8.20;4.07;;;9.70;99.90;;;;;;5038696;28;20437;-41
2022/04/21 01:33:10;;;;;;;5.07;4.33;;;9.60;99.90;;;;;;5026446;28;21167;-41
2022/04/21 01:35:37;;;;;;;3.87;3.50;;;9.70;99.90;;;;;;5030143;28;20194;-41
2022/04/21 01:43:32;;;;;;;5.90;4.37;;;9.50;99.90;;;;;;5030246;28;20487;-41
2022/04/21 01:45:58;;;;;;;4.43;4.03;;;9.40;99.90;;;;;;5024145;28;20866;-41
2022/04/21 01:48:24;;;;;;;5.00;4.50;;;9.50;99.90;;;;;;5023878;28;20190;-41
2022/04/21 01:50:49;;;;;;;4.17;3.63;;;9.10;99.90;;;;;;5029299;28;20191;-41
2022/04/21 01:53:15;;;;;;;4.43;4.03;;;9.40;99.90;;;;;;5029804;28;20429;-41
2022/04/21 01:55:41;;;;;;;8.83;4.30;;;9.60;99.90;;;;;;5028209;28;20292;-41
2022/04/21 01:58:06;;;;;;;4.43;4.10;;;9.70;99.90;;;;;;5029646;28;20256;-41
2022/04/21 02:00:32;;;;;;;5.50;4.13;;;10.00;99.90;;;;;;5027516;28;20194;-41
2022/04/21 02:02:58;;;;;;;5.73;4.03;;;9.80;99.90;;;;;;5019351;28;20297;-41
2022/04/21 02:05:24;;;;;;;6.63;4.90;;;9.80;99.90;;;;;;5028208;28;20575;-41
2022/04/21 02:07:50;;;;;;;5.40;4.80;;;9.90;99.90;;;;;;5029629;28;20214;-41
2022/04/21 02:10:18;;;;;;;6.47;5.30;;;9.90;99.90;;;;;;5028801;28;20436;-41
2022/04/21 02:12:45;;;;;;;5.63;4.90;;;9.80;99.90;;;;;;5029657;28;20259;-41
2022/04/21 02:15:11;;;;;;;7.33;5.07;;;9.70;99.90;;;;;;5029613;28;20422;-41
2022/04/21 02:17:38;;;;;;;5.93;5.43;;;9.70;99.90;;;;;;5019098;28;20865;-43
2022/04/21 02:20:06;;;;;;;7.40;5.47;;;9.50;99.90;;;;;;5028772;28;20425;-41
2022/04/21 02:22:34;;;;;;;8.20;5.30;;;9.70;99.90;;;;;;5029075;28;20510;-41
2022/04/21 02:25:04;;;;;;;7.67;5.73;;;9.50;99.90;;;;;;5031729;28;21204;-41
2022/04/21 02:27:29;;;;;;;7.70;6.90;;;9.40;99.90;;;;;;5048944;28;20431;-41
2022/04/21 02:29:55;;;;;;;6.20;5.60;;;9.50;99.90;;;;;;5048694;28;20425;-41
2022/04/21 02:32:21;;;;;;;7.03;6.33;;;9.60;99.90;;;;;;5023846;28;20548;-42
2022/04/21 02:34:47;;;;;;;6.40;5.80;;;9.30;99.90;;;;;;5029136;28;20198;-41
2022/04/21 02:37:13;;;;;;;7.20;5.57;;;9.30;99.90;;;;;;5028983;28;20431;-41
2022/04/21 02:39:38;;;;;;;6.37;5.67;;;9.20;99.90;;;;;;5028597;28;20206;-41
2022/04/21 02:42:04;;;;;;;7.30;6.03;;;9.20;99.90;;;;;;5029050;28;20232;-41
2022/04/21 02:44:31;;;;;;;6.60;5.40;;;9.00;99.90;;;;;;5029149;28;20179;-41
2022/04/21 02:47:00;;;;;;;6.63;6.00;;;9.00;99.90;;;;;;5020333;28;20995;-41
2022/04/21 02:49:26;;;;;;;6.20;5.57;;;8.90;99.90;;;;;;5029075;28;20424;-41
2022/04/21 02:51:52;;;;;;;6.40;5.70;;;8.80;99.90;;;;;;5024105;28;20417;-41
2022/04/21 02:57:20;;;;;;;6.80;5.13;;;8.90;99.90;;;;;;5017788;28;20452;-41
2022/04/21 02:59:54;;;;;;;6.43;5.60;;;8.90;99.90;;;;;;5028624;28;20435;-41
2022/04/21 03:02:21;;;;;;;7.93;6.07;;;8.90;99.90;;;;;;5015699;28;20465;-41
2022/04/21 03:04:48;;;;;;;5.77;5.20;;;8.80;99.90;;;;;;5026626;28;20467;-41
2022/04/21 03:07:14;;;;;;;6.27;5.67;;;8.60;99.90;;;;;;5028967;28;20417;-41
2022/04/21 03:09:40;;;;;;;5.87;5.23;;;8.60;99.90;;;;;;5028317;28;20429;-41
2022/04/21 03:12:08;;;;;;;7.97;5.53;;;8.70;99.90;;;;;;5028730;28;20471;-41
2022/04/21 03:14:41;;;;;;;7.13;5.50;;;9.00;99.90;;;;;;5028709;28;20417;-41
2022/04/21 03:17:08;;;;;;;5.37;4.53;;;8.80;99.90;;;;;;5019885;28;20469;-41
2022/04/21 03:19:35;;;;;;;6.13;4.93;;;8.90;99.90;;;;;;5028494;28;20512;-41
2022/04/21 03:24:46;;;;;;;5.60;4.83;;;9.30;99.90;;;;;;5036595;28;20798;-41
2022/04/21 03:27:12;;;;;;;6.93;5.00;;;9.30;99.90;;;;;;5043884;28;20420;-41
2022/04/21 03:29:38;;;;;;;5.70;4.87;;;9.30;99.90;;;;;;5048241;28;20420;-41
2022/04/21 03:32:13;;;;;;;5.50;5.00;;;9.30;99.90;;;;;;5034133;28;20445;-41
2022/04/21 03:34:40;;;;;;;7.37;4.90;;;9.20;99.90;;;;;;5024161;28;20491;-41
2022/04/21 03:37:08;;;;;;;5.43;4.93;;;9.00;99.90;;;;;;5032420;28;20449;-41
2022/04/21 03:39:35;;;;;;;5.80;4.90;;;9.20;99.90;;;;;;5031832;28;21084;-41
2022/04/21 03:42:05;;;;;;;5.37;4.57;;;9.00;99.90;;;;;;5032109;28;20531;-41
2022/04/21 03:44:30;;;;;;;5.57;4.87;;;8.90;99.90;;;;;;5030896;28;20428;-41
2022/04/21 03:46:57;;;;;;;5.03;4.53;;;8.90;99.90;;;;;;5026722;28;20464;-41
2022/04/21 03:49:28;;;;;;;4.87;4.43;;;8.90;99.90;;;;;;5026632;28;20209;-42
2022/04/21 03:51:54;;;;;;;5.87;5.27;;;8.80;99.90;;;;;;5031519;28;20432;-41
2022/04/21 03:54:20;;;;;;;4.40;4.00;;;8.60;99.90;;;;;;5031905;28;20425;-41
2022/04/21 03:56:46;;;;;;;6.23;4.70;;;8.80;99.90;;;;;;5032034;28;20479;-41
2022/04/21 03:59:12;;;;;;;6.03;5.43;;;8.70;99.90;;;;;;5032293;28;20194;-41
2022/04/21 04:01:37;;;;;;;5.40;4.50;;;8.70;99.90;;;;;;5027155;28;20191;-41
2022/04/21 04:04:03;;;;;;;6.97;5.00;;;8.50;99.90;;;;;;5027376;28;20241;-41
2022/04/21 04:11:59;;;;;;;7.50;6.60;;;8.70;99.90;;;;;;5031953;28;20429;-41
2022/04/21 04:14:25;;;;;;;6.10;5.50;;;8.50;99.90;;;;;;5031989;28;20902;-41
2022/04/21 04:16:52;;;;;;;5.70;5.10;;;8.20;99.90;;;;;;5027362;28;20470;-41
2022/04/21 04:19:17;;;;;;;6.60;5.87;;;8.30;99.90;;;;;;5026915;28;20438;-40
2022/04/21 04:21:43;;;;;;;10.80;6.50;;;8.30;99.90;;;;;;5030942;28;20421;-41
2022/04/21 04:24:09;;;;;;;8.00;6.40;;;8.20;99.90;;;;;;5037227;28;20221;-42
2022/04/21 04:26:35;;;;;;;7.03;6.23;;;8.40;99.90;;;;;;5049485;28;20200;-41
2022/04/21 04:29:02;;;;;;;6.83;6.17;;;8.40;99.90;;;;;;5051838;28;20273;-41
2022/04/21 04:31:28;;;;;;;8.50;6.47;;;8.40;99.90;;;;;;5049475;28;20196;-41
2022/04/21 04:33:53;;;;;;;6.70;6.03;;;8.20;99.90;;;;;;5022825;28;20796;-41
2022/04/21 04:36:19;;;;;;;9.43;6.20;;;8.40;99.90;;;;;;5031436;28;20237;-41
2022/04/21 04:38:47;;;;;;;6.60;5.93;;;8.30;99.90;;;;;;5030065;28;20193;-42
2022/04/21 04:43:57;;;;;;;7.53;6.40;;;8.30;99.90;;;;;;5030370;28;20554;-41
2022/04/21 04:46:34;;;;;;;7.37;6.50;;;8.40;99.90;;;;;;5027447;28;20472;-41
2022/04/21 04:49:01;;;;;;;7.63;6.33;;;8.50;99.90;;;;;;5027140;28;20186;-41
2022/04/21 04:51:27;;;;;;;7.83;6.80;;;8.20;99.90;;;;;;5026862;28;20500;-41
2022/04/21 04:53:55;;;;;;;7.73;6.40;;;8.60;99.90;;;;;;5029999;28;20920;-41
2022/04/21 04:56:21;;;;;;;8.93;6.93;;;8.30;99.90;;;;;;5030480;28;20661;-41
2022/04/21 04:58:48;;;;;;;9.30;7.20;;;8.30;99.90;;;;;;5030904;28;20464;-41
2022/04/21 05:01:18;;;;;;;11.10;7.30;;;8.30;99.90;;;;;;5030298;28;20794;-41
2022/04/21 05:03:43;;;;;;;11.10;6.80;;;8.40;99.90;;;;;;5023044;28;20475;-41
2022/04/21 05:06:09;;;;;;;11.57;7.53;;;8.30;99.90;;;;;;5029563;28;20425;-41
2022/04/21 05:08:35;;;;;;;9.50;6.73;;;8.60;99.90;;;;;;5030880;28;20584;-41
2022/04/21 05:11:01;;;;;;;8.60;7.20;;;8.40;99.90;;;;;;5028818;28;20226;-41
2022/04/21 05:13:27;;;;;;;8.93;7.40;;;8.40;99.90;;;;;;5027521;28;20469;-41
2022/04/21 05:15:52;;;;;;;11.80;7.13;;;8.40;99.90;;;;;;5030489;28;20523;-41
2022/04/21 05:18:18;;;;;;;13.40;7.30;;;8.50;99.90;;;;;;5015905;28;20198;-41
2022/04/21 05:20:44;;;;;;;7.33;6.43;;;8.50;99.90;;;;;;5029725;28;20265;-42
2022/04/21 05:23:12;;;;;;;8.33;7.47;;;8.50;99.90;;;;;;5030369;28;21222;-41
2022/04/21 05:25:40;;;;;;;9.60;7.07;;;8.60;99.90;;;;;;5032867;28;20236;-42
2022/04/21 05:28:07;;;;;;;10.70;6.97;;;8.90;99.90;;;;;;5041487;28;20436;-41
2022/04/21 05:33:23;;;;;;;8.00;6.80;;;8.80;99.90;;;;;;5027818;28;20478;-41
2022/04/21 05:35:49;;;;;;;9.60;7.40;;;8.80;99.90;;;;;;5030126;28;20525;-41
2022/04/21 05:38:16;;;;;;;10.10;6.90;;;8.90;99.90;;;;;;5030281;28;21098;-41
2022/04/21 05:40:42;;;;;;;12.80;7.30;;;9.00;99.90;;;;;;5029425;28;20429;-42
2022/04/21 05:43:11;;;;;;;7.90;6.47;;;9.10;99.90;;;;;;5030264;28;20880;-42
2022/04/21 05:45:37;;;;;;;10.63;7.70;;;9.10;99.90;;;;;;5029805;28;20450;-41
2022/04/21 05:48:03;;;;;;;7.57;6.77;;;9.50;99.90;;;;;;5023003;28;20492;-41
2022/04/21 05:50:29;;;;;;;7.23;6.00;;;9.60;99.90;;;;;;5023135;28;20422;-41
2022/04/21 05:52:58;;;;;;;8.83;7.03;;;9.80;99.90;;;;;;5029887;28;20433;-41
2022/04/21 05:55:24;;;;;;;10.03;6.63;;;10.00;99.90;;;;;;5029749;28;20432;-41
2022/04/21 05:57:50;;;;;;;8.00;6.97;;;10.50;99.90;;;;;;5029319;28;20451;-42
2022/04/21 06:00:16;;;;;;;8.53;7.63;;;10.50;99.90;;;;;;5029390;28;20433;-42
2022/04/21 06:02:42;;;;;;;9.60;7.47;;;10.70;99.90;;;;;;5026017;28;20310;-42
2022/04/21 06:05:08;;;;;;;8.27;6.93;;;10.80;99.90;;;;;;5021800;28;20895;-41
2022/04/21 06:07:33;;;;;;;9.20;6.90;;;11.20;99.90;;;;;;5030608;28;20795;-42
2022/04/21 06:09:59;;;;;;;9.90;7.83;;;11.30;99.40;;;;;;5029117;28;20564;-41
2022/04/21 06:12:25;;;;;;;7.83;7.03;;;11.60;99.70;;;;;;5025342;28;20190;-41
2022/04/21 06:14:52;;;;;;;13.77;7.30;;;11.80;98.80;;;;;;5024407;28;20591;-41
2022/04/21 06:17:17;;;;;;;8.13;7.30;;;12.10;98.10;;;;;;5025791;28;20421;-41
2022/04/21 06:19:43;;;;;;;7.17;6.57;;;12.20;97.80;;;;;;5019226;28;20425;-41
2022/04/21 06:22:09;;;;;;;10.30;7.03;;;12.30;97.70;;;;;;5028453;28;20491;-42
2022/04/21 06:24:35;;;;;;;7.67;6.80;;;12.30;97.70;;;;;;5037785;28;20190;-42
2022/04/21 06:27:03;;;;;;;7.50;6.47;;;12.40;97.80;;;;;;5040439;28;20190;-41
2022/04/21 06:29:29;;;;;;;8.43;6.87;;;12.50;97.40;;;;;;5049005;28;20463;-41
2022/04/21 06:31:55;;;;;;;8.73;7.17;;;12.60;97.70;;;;;;5048690;28;20420;-42
2022/04/21 06:34:22;;;;;;;7.40;6.43;;;12.60;97.70;;;;;;5022415;28;20977;-41
2022/04/21 06:36:48;;;;;;;7.97;6.70;;;12.80;96.80;;;;;;5029049;28;20213;-41
2022/04/21 06:39:14;;;;;;;9.20;6.20;;;12.90;96.90;;;;;;5029168;28;20437;-41
2022/04/21 06:41:40;;;;;;;7.30;6.60;;;13.10;96.50;;;;;;5028623;28;20429;-42
2022/04/21 06:49:34;;;;;;;9.10;6.50;;;13.20;96.30;;;;;;5018665;28;20437;-41
2022/04/21 06:52:00;;;;;;;8.00;6.33;;;13.40;96.20;;;;;;5028650;28;21069;-42
2022/04/21 06:54:26;;;;;;;6.97;5.57;;;13.60;96.00;;;;;;5029065;28;20187;-42
2022/04/21 06:56:51;;;;;;;6.53;5.93;;;13.70;95.30;;;;;;5029211;28;20305;-41
2022/04/21 06:59:17;;;;;;;9.10;7.00;;;13.80;95.10;;;;;;5028998;28;20193;-42
2022/04/21 07:01:46;;;;;;;7.07;6.10;;;13.70;95.10;;;;;;5026426;28;20670;-41
2022/04/21 07:04:15;;;;;;;15.87;6.50;;;13.80;94.80;;;;;;5018551;28;20481;-41
2022/04/21 07:06:41;;;;;;;6.23;5.63;;;13.90;95.00;;;;;;5028445;28;20417;-41
2022/04/21 07:09:07;;;;;;;7.93;5.97;;;14.00;95.00;;;;;;5028534;28;20487;-41
2022/04/21 07:11:33;;;;;;;6.50;5.00;;;14.10;94.30;;;;;;5030346;28;20209;-42
2022/04/21 07:13:58;;;;;;;6.30;5.70;;;14.20;93.80;;;;;;5032447;28;20182;-41
2022/04/21 07:16:24;;;;;;;6.43;5.60;;;14.20;94.10;;;;;;5032335;28;20509;-42
2022/04/21 07:18:50;;;;;;;8.33;5.23;;;14.20;93.40;;;;;;5023521;28;20227;-41
2022/04/21 07:21:16;;;;;;;6.43;5.77;;;14.10;94.00;;;;;;5031905;28;20194;-41
2022/04/21 07:23:42;;;;;;;9.33;5.13;;;13.90;94.30;;;;;;5033809;28;20622;-41
2022/04/21 07:26:08;;;;;;;6.27;5.70;;;13.90;94.10;;;;;;5052701;28;20432;-41
2022/04/21 07:28:34;;;;;;;9.70;6.40;;;13.80;94.40;;;;;;5047368;28;20426;-41
2022/04/21 07:31:00;;;;;;;6.33;5.80;;;13.60;94.80;;;;;;5050119;28;20303;-41
2022/04/21 07:33:26;;;;;;;8.60;5.30;;;13.70;94.70;;;;;;5035499;28;20920;-41
2022/04/21 07:35:52;;;;;;;5.83;5.33;;;13.70;94.50;;;;;;5031507;28;20429;-41
2022/04/21 07:38:17;;;;;;;6.03;5.37;;;13.60;94.20;;;;;;5031868;28;20196;-41
2022/04/21 07:40:43;;;;;;;5.80;5.20;;;13.60;94.80;;;;;;5032210;28;20190;-41
2022/04/21 07:43:09;;;;;;;6.13;5.03;;;13.60;95.00;;;;;;5031112;28;20228;-41
2022/04/21 07:45:39;;;;;;;4.37;4.00;;;13.50;94.70;;;;;;5030621;28;20959;-42
2022/04/21 07:48:05;;;;;;;5.50;5.00;;;13.50;94.60;;;;;;5029202;28;20182;-41
2022/04/21 07:50:31;;;;;;;5.53;5.00;;;13.50;94.80;;;;;;5019367;28;20409;-41
2022/04/21 07:53:14;;;;;;;5.93;5.43;;;13.50;94.00;;;;;;5031642;28;21073;-41
2022/04/21 07:55:46;;;;;;;6.00;5.17;;;13.50;94.40;;;;;;5031531;28;20194;-42
2022/04/21 07:58:12;;;;;;;6.20;4.87;;;13.40;94.50;;;;;;5030183;28;20450;-41
2022/04/21 08:00:38;;;;;;;7.43;4.60;;;13.30;94.30;;;;;;5030883;28;20425;-41
2022/04/21 08:03:07;;;;;;;5.00;4.50;;;13.30;94.00;;;;;;5029236;28;20461;-41
2022/04/21 08:05:33;;;;;;;6.77;4.23;;;13.30;93.30;;;;;;5027520;28;20414;-41
2022/04/21 08:08:00;;;;;;;5.60;4.30;;;13.30;93.30;;;;;;5030677;28;20421;-41
2022/04/21 08:10:28;;;;;;;4.90;4.40;;;13.20;93.70;;;;;;5030880;28;20436;-42
2022/04/21 08:12:55;;;;;;;4.90;4.47;;;13.10;93.50;;;;;;5031204;28;20441;-42
2022/04/21 08:15:28;;;;;;;5.30;4.33;;;13.00;93.60;;;;;;5030989;28;20436;-42
2022/04/21 08:17:57;;;;;;;9.30;4.50;;;13.20;93.10;;;;;;5031512;28;20970;-41
2022/04/21 08:20:24;;;;;;;4.47;3.80;;;13.20;92.60;;;;;;5017132;28;20967;-41
2022/04/21 08:22:50;;;;;;;6.93;4.43;;;13.30;91.80;;;;;;5031077;28;20549;-41
2022/04/21 08:33:29;;;;;;;4.43;4.03;;;13.40;91.20;;;;;;5044972;28;20548;-41
2022/04/21 08:35:58;;;;;;;4.13;3.73;;;13.40;92.00;;;;;;5032491;28;20525;-42
2022/04/21 08:38:28;;;;;;;6.10;4.07;;;13.40;91.70;;;;;;5031185;28;20183;-42
2022/04/21 08:40:59;;;;;;;5.10;4.50;;;13.50;90.80;;;;;;5029134;28;20425;-42
2022/04/21 08:43:27;;;;;;;4.87;4.40;;;13.60;92.00;;;;;;5028037;28;20492;-41
2022/04/21 08:45:54;;;;;;;7.90;4.97;;;13.60;92.50;;;;;;5030824;28;20422;-41
2022/04/21 08:48:22;;;;;;;5.23;4.43;;;13.70;92.40;;;;;;5028892;28;20492;-42
2022/04/21 08:50:48;;;;;;;5.00;4.40;;;13.80;91.90;;;;;;5024577;28;20437;-41
2022/04/21 08:53:16;;;;;;;6.77;4.60;;;13.80;91.80;;;;;;5029115;28;20794;-42
2022/04/21 08:55:44;;;;;;;12.80;4.47;;;13.90;92.10;;;;;;5030599;28;20429;-42
2022/04/21 08:58:11;;;;;;;6.03;3.50;;;13.90;92.40;;;;;;5030035;28;20455;-41
2022/04/21 09:00:38;;;;;;;6.73;4.07;;;14.00;92.10;;;;;;5028384;28;20928;-41
2022/04/21 09:03:05;;;;;;;6.03;3.73;;;14.00;91.70;;;;;;5030332;28;20465;-41
2022/04/21 09:05:31;;;;;;;4.57;3.73;;;14.00;91.30;;;;;;5018374;28;21348;-41
2022/04/21 09:07:58;;;;;;;5.00;4.13;;;14.00;91.80;;;;;;5030340;28;20449;-41
2022/04/21 09:10:25;;;;;;;4.77;3.67;;;14.00;91.50;;;;;;5029813;28;20524;-42
2022/04/21 09:12:55;;;;;;;4.00;3.70;;;14.10;92.10;;;;;;5029929;28;20435;-41
2022/04/21 09:15:23;;;;;;;4.20;3.80;;;14.10;90.80;;;;;;5022824;28;20433;-42
2022/04/21 09:17:57;;;;;;;5.20;4.10;;;14.20;90.60;;;;;;5030394;28;20428;-41
2022/04/21 09:20:29;;;;;;;4.30;3.90;;;14.30;91.20;;;;;;5017667;28;20782;-41
2022/04/21 09:22:57;;;;;;;5.73;3.60;;;14.30;91.40;;;;;;5028181;28;20461;-42
2022/04/21 09:25:24;;;;;;;4.50;3.57;;;14.30;91.20;;;;;;5045400;28;20435;-41
2022/04/21 09:27:50;;;;;;;4.30;3.03;;;14.40;90.30;;;;;;5042104;28;20451;-42
2022/04/21 09:30:17;;;;;;;4.70;3.80;;;14.30;90.30;;;;;;5045436;28;20428;-41
2022/04/21 09:32:53;;;;;;;5.20;4.00;;;14.30;90.70;;;;;;5047611;28;20428;-41
2022/04/21 09:35:20;;;;;;;5.13;3.73;;;14.20;90.80;;;;;;5024800;28;20799;-42
2022/04/21 09:37:51;;;;;;;4.70;3.40;;;14.20;91.50;;;;;;5029553;28;20436;-42
2022/04/21 09:40:29;;;;;;;4.17;3.57;;;14.30;90.40;;;;;;5027098;28;20491;-42
2022/04/21 09:43:03;;;;;;;4.03;3.63;;;14.30;90.70;;;;;;5029227;28;20461;-42
2022/04/21 09:48:28;;;;;;;4.30;3.77;;;14.30;90.60;;;;;;5029476;28;20429;-41
2022/04/21 09:50:54;;;;;;;5.20;3.53;;;14.30;91.20;;;;;;5025242;28;20433;-42
2022/04/21 09:53:24;;;;;;;7.80;5.67;;;14.40;91.60;;;;;;5029229;28;20444;-42
2022/04/21 09:55:52;;;;;;;4.77;4.37;;;14.50;91.30;;;;;;5029191;28;20479;-42
2022/04/21 09:58:18;;;;;;;7.83;4.00;;;14.60;92.30;;;;;;5028902;28;20448;-42
2022/04/21 10:00:45;;;;;;;6.63;4.53;;;14.60;92.00;;;;;;5028594;28;20425;-41
2022/04/21 10:03:11;;;;;;;7.13;4.03;;;14.50;91.90;;;;;;5028998;28;20453;-42
2022/04/21 10:05:40;;;;;;;4.00;3.57;;;14.40;91.30;;;;;;5020245;28;20429;-41
2022/04/21 10:08:08;;;;;;;4.40;3.90;;;14.30;91.50;;;;;;5027900;28;20417;-42
2022/04/21 10:10:35;;;;;;;4.37;3.97;;;14.20;92.40;;;;;;5028476;28;20413;-42
2022/04/21 10:13:03;;;;;;;4.93;4.10;;;14.20;92.60;;;;;;5028855;28;20437;-41
2022/04/21 10:15:29;;;;;;;5.80;4.03;;;14.10;92.20;;;;;;5028615;28;20455;-41
2022/04/21 10:17:56;;;;;;;5.17;4.30;;;14.20;92.50;;;;;;5029051;28;20425;-42
2022/04/21 10:20:28;;;;;;;7.47;4.80;;;14.10;92.70;;;;;;5017426;28;20818;-42
2022/04/21 10:22:56;;;;;;;4.00;3.60;;;14.00;93.60;;;;;;5028692;28;20560;-42
2022/04/21 10:25:43;;;;;;;4.27;3.90;;;14.10;93.40;;;;;;5026151;28;20927;-42
2022/04/21 10:28:30;;;;;;;7.40;4.50;;;14.10;93.00;;;;;;5042214;28;21056;-42
2022/04/21 10:30:57;;;;;;;4.97;4.30;;;14.10;93.00;;;;;;5048130;28;20428;-42
2022/04/21 10:33:52;;;;;;;6.60;4.07;;;14.20;93.20;;;;;;5048456;28;20438;-41
2022/04/21 10:36:35;;;;;;;6.37;4.03;;;14.20;93.20;;;;;;5015625;28;20496;-41
2022/04/21 10:39:16;;;;;;;5.13;3.97;;;14.20;92.80;;;;;;5026160;28;20425;-41
2022/04/21 10:41:43;;;;;;;3.77;3.40;;;14.30;92.10;;;;;;5026417;28;20431;-41
2022/04/21 10:44:27;;;;;;;4.53;4.10;;;14.30;91.50;;;;;;5028152;28;20471;-41
2022/04/21 10:47:30;;;;;;;4.03;3.60;;;14.40;91.80;;;;;;5028408;28;20512;-41
2022/04/21 10:49:57;;;;;;;4.20;3.80;;;14.50;92.00;;;;;;5022215;28;20434;-41
2022/04/21 10:58:35;;;;;;;4.33;3.67;;;14.80;92.40;;;;;;5028577;28;20483;-42
2022/04/21 11:01:10;;;;;;;10.03;4.57;;;14.90;92.00;;;;;;5027839;28;20421;-42
2022/04/21 11:03:37;;;;;;;4.60;4.00;;;15.10;91.80;;;;;;5026343;28;21149;-41
2022/04/21 11:06:11;;;;;;;4.10;3.70;;;15.20;91.40;;;;;;5022063;28;20437;-42
2022/04/21 11:08:38;;;;;;;4.20;3.80;;;15.20;91.80;;;;;;5028723;28;20803;-42
2022/04/21 11:11:05;;;;;;;9.27;3.90;;;15.30;91.10;;;;;;5027390;28;20425;-41
2022/04/21 11:14:06;;;;;;;6.10;4.00;;;15.40;90.50;;;;;;5028183;28;20421;-41
2022/04/21 11:16:48;;;;;;;6.73;3.97;;;15.50;91.10;;;;;;5017446;28;20432;-41
2022/04/21 11:19:30;;;;;;;6.37;4.47;;;15.70;91.20;;;;;;5027302;28;20456;-41
2022/04/21 11:21:56;;;;;;;7.10;4.17;;;15.90;91.00;;;;;;5020732;28;20511;-42
2022/04/21 11:24:23;;;;;;;4.67;3.93;;;15.90;90.60;;;;;;5034822;28;21063;-41
2022/04/21 11:26:56;;;;;;;6.50;4.50;;;16.00;90.40;;;;;;5047974;28;20782;-42
2022/04/21 11:29:23;;;;;;;4.97;4.50;;;15.90;90.40;;;;;;5042961;28;20515;-41
2022/04/21 11:31:54;;;;;;;4.23;3.83;;;16.00;91.00;;;;;;5047503;28;20448;-42
2022/04/21 11:34:23;;;;;;;5.40;4.30;;;16.20;91.00;;;;;;5048180;28;20416;-41
2022/04/21 11:36:53;;;;;;;5.60;4.43;;;16.40;90.00;;;;;;5016107;28;20486;-42
2022/04/21 11:39:19;;;;;;;4.70;4.07;;;16.50;88.80;;;;;;5020558;28;20452;-42
2022/04/21 11:41:48;;;;;;;7.13;4.60;;;16.50;90.40;;;;;;5025872;28;20531;-42
2022/04/21 11:44:25;;;;;;;5.30;4.57;;;16.50;88.60;;;;;;5027883;28;21056;-41
2022/04/21 11:46:51;;;;;;;5.00;4.17;;;16.40;89.10;;;;;;5028215;28;20938;-42
2022/04/21 11:49:17;;;;;;;5.57;4.83;;;16.40;90.00;;;;;;5027695;28;20429;-42
2022/04/21 11:51:44;;;;;;;4.07;3.67;;;16.30;90.00;;;;;;5016068;28;20441;-41
2022/04/21 11:54:11;;;;;;;4.43;4.00;;;16.30;89.90;;;;;;5028048;28;20432;-42
2022/04/21 11:56:38;;;;;;;6.60;4.50;;;16.30;90.30;;;;;;5029586;28;20433;-42
2022/04/21 11:59:06;;;;;;;5.53;5.03;;;16.30;89.50;;;;;;5031624;28;20432;-42
2022/04/21 12:07:03;;;;;;;5.77;5.03;;;16.40;91.00;;;;;;5023376;28;20929;-42
2022/04/21 12:09:33;;;;;;;6.67;5.60;;;16.30;90.20;;;;;;5031495;28;20431;-42
2022/04/21 12:12:00;;;;;;;6.00;4.87;;;16.20;90.20;;;;;;5031215;28;20418;-43
2022/04/21 12:14:28;;;;;;;5.43;4.93;;;16.30;91.70;;;;;;5030972;28;20437;-41
2022/04/21 12:16:58;;;;;;;5.60;4.90;;;16.40;91.50;;;;;;5031353;28;20935;-42
2022/04/21 12:19:38;;;;;;;5.53;5.03;;;16.50;91.50;;;;;;5031184;28;20417;-42
2022/04/21 12:22:12;;;;;;;6.37;5.40;;;16.70;91.20;;;;;;5024201;28;20460;-41
2022/04/21 12:24:40;;;;;;;7.60;5.57;;;16.80;91.90;;;;;;5033642;28;20515;-42
2022/04/21 12:27:23;;;;;;;5.30;4.80;;;16.90;90.80;;;;;;5045742;28;20773;-41
2022/04/21 12:30:04;;;;;;;7.20;6.20;;;16.90;92.20;;;;;;5048548;28;20457;-42
2022/04/21 12:32:32;;;;;;;6.83;5.70;;;16.90;92.00;;;;;;5050769;28;20975;-42
2022/04/21 12:35:03;;;;;;;7.13;5.57;;;17.00;91.80;;;;;;5046625;28;20823;-42
2022/04/21 12:37:37;;;;;;;6.10;5.50;;;17.00;90.20;;;;;;5029096;28;20436;-42
2022/04/21 12:40:04;;;;;;;6.07;5.40;;;16.90;90.40;;;;;;5030321;28;20429;-42
2022/04/21 12:42:32;;;;;;;5.17;4.67;;;16.70;91.10;;;;;;5029544;28;21093;-42
2022/04/21 12:44:58;;;;;;;6.70;4.83;;;16.70;92.00;;;;;;5030759;28;20913;-42
2022/04/21 12:47:24;;;;;;;5.13;4.63;;;16.60;90.70;;;;;;5030659;28;20513;-41
2022/04/21 12:49:59;;;;;;;6.90;4.80;;;16.60;91.60;;;;;;5029256;28;20560;-41
2022/04/21 12:52:48;;;;;;;6.67;5.10;;;16.60;92.20;;;;;;5033326;28;20436;-42
2022/04/21 12:55:19;;;;;;;5.90;5.00;;;16.70;91.20;;;;;;5029962;28;20810;-41
2022/04/21 12:58:06;;;;;;;5.53;5.03;;;16.80;91.50;;;;;;5030552;28;20437;-42
2022/04/21 13:00:33;;;;;;;6.47;5.63;;;16.90;91.60;;;;;;5030132;28;20452;-42
2022/04/21 13:03:02;;;;;;;6.40;5.80;;;16.90;91.50;;;;;;5030184;28;20471;-42
2022/04/21 13:05:29;;;;;;;7.40;5.60;;;16.90;91.40;;;;;;5024468;28;20501;-42
2022/04/21 13:07:54;;;;;;;6.57;5.70;;;16.70;92.00;;;;;;5028739;28;20500;-42
2022/04/21 13:10:21;;;;;;;12.17;5.60;;;16.60;91.80;;;;;;5028204;28;20461;-41
2022/04/21 13:12:50;;;;;;;7.50;6.07;;;16.60;92.40;;;;;;5030065;28;20777;-41
2022/04/21 13:15:16;;;;;;;7.13;6.37;;;16.60;92.40;;;;;;5030402;28;20958;-42
2022/04/21 13:17:42;;;;;;;8.17;5.83;;;16.50;92.20;;;;;;5029982;28;20785;-42
2022/04/21 13:20:09;;;;;;;6.60;5.90;;;16.40;91.70;;;;;;5029306;28;20433;-42
2022/04/21 13:22:35;;;;;;;7.23;5.50;;;16.30;92.10;;;;;;5020043;28;20436;-42
2022/04/21 13:25:01;;;;;;;6.93;5.70;;;16.30;92.00;;;;;;5032429;28;20908;-42
2022/04/21 13:27:29;;;;;;;9.00;5.50;;;16.30;92.40;;;;;;5029911;28;20803;-42
2022/04/21 13:29:54;;;;;;;8.80;6.10;;;16.40;92.20;;;;;;5029354;28;20183;-42
2022/04/21 13:35:05;;;;;;;6.23;5.63;;;16.60;92.50;;;;;;5029878;28;20190;-42
2022/04/21 13:37:31;;;;;;;9.40;5.93;;;16.60;93.60;;;;;;5020962;28;20431;-41
2022/04/21 13:39:57;;;;;;;9.07;5.93;;;16.80;94.00;;;;;;5028567;28;20433;-42
2022/04/21 13:42:22;;;;;;;6.17;5.57;;;16.90;92.90;;;;;;5029951;28;20503;-42
2022/04/21 13:44:48;;;;;;;9.83;6.20;;;17.00;93.20;;;;;;5029429;28;20707;-42
2022/04/21 13:47:14;;;;;;;8.07;5.93;;;17.00;92.30;;;;;;5029612;28;20286;-41
2022/04/21 13:49:46;;;;;;;6.00;5.50;;;17.00;92.40;;;;;;5027816;28;20182;-42
2022/04/21 13:52:12;;;;;;;6.50;5.77;;;17.00;92.50;;;;;;5020110;28;20996;-41
2022/04/21 13:54:41;;;;;;;7.90;5.80;;;17.00;92.50;;;;;;5030067;28;20465;-41